createdAt,value
2023-07-03T00:00:21.836Z,22.65
2023-07-03T00:02:54.233Z,23.00
2023-07-03T00:05:23.189Z,27.02
2023-07-03T00:07:50.904Z,25.80
2023-07-03T00:10:19.502Z,23.35
2023-07-03T00:12:46.997Z,23.80
2023-07-03T00:15:15.374Z,25.85
2023-07-03T00:17:45.805Z,31.75
2023-07-03T00:20:15.459Z,25.50
2023-07-03T00:22:45.516Z,26.02
2023-07-03T00:25:12.846Z,25.60
2023-07-03T00:27:40.078Z,26.20
2023-07-03T00:30:08.454Z,27.02
2023-07-03T00:32:39.273Z,27.08
2023-07-03T00:35:07.915Z,27.73
2023-07-03T00:37:38.382Z,20.90
2023-07-03T00:40:08.187Z,26.33
2023-07-03T00:42:35.719Z,35.83
2023-07-03T00:45:05.323Z,24.02
2023-07-03T00:47:35.821Z,25.27
2023-07-03T00:50:03.241Z,29.88
2023-07-03T00:52:30.624Z,26.98
2023-07-03T00:54:59.254Z,29.40
2023-07-03T00:57:27.124Z,26.88
2023-07-03T00:59:54.274Z,30.95
2023-07-03T01:02:40.346Z,28.52
2023-07-03T01:05:18.580Z,26.20
2023-07-03T01:07:47.555Z,25.05
2023-07-03T01:10:25.126Z,26.65
2023-07-03T01:13:03.678Z,32.53
2023-07-03T01:15:36.787Z,27.40
2023-07-03T01:18:07.485Z,26.77
2023-07-03T01:20:51.064Z,32.38
2023-07-03T01:25:58.960Z,26.55
2023-07-03T01:28:27.866Z,29.80
2023-07-03T01:30:57.228Z,25.55
2023-07-03T01:33:32.717Z,28.88
2023-07-03T01:37:20.575Z,26.73
2023-07-03T01:39:50.371Z,31.05
2023-07-03T01:42:17.955Z,26.92
2023-07-03T01:44:45.186Z,28.13
2023-07-03T01:47:15.281Z,29.55
2023-07-03T01:50:30.489Z,29.40
2023-07-03T01:53:06.625Z,23.40
2023-07-03T01:55:47.754Z,29.17
2023-07-03T01:58:31.032Z,31.98
2023-07-03T02:01:08.561Z,27.70
2023-07-03T02:03:54.128Z,22.48
2023-07-03T02:06:31.144Z,28.27
2023-07-03T02:10:03.315Z,31.85
2023-07-03T02:14:56.540Z,26.80
2023-07-03T02:18:05.240Z,27.27
2023-07-03T02:22:19.403Z,23.95
2023-07-03T02:25:57.534Z,34.42
2023-07-03T02:30:11.789Z,23.70
2023-07-03T02:33:42.298Z,29.60
2023-07-03T02:37:15.183Z,29.70
2023-07-03T02:41:14.426Z,28.67
2023-07-03T02:43:41.573Z,30.52
2023-07-03T02:46:09.813Z,35.17
2023-07-03T02:48:37.254Z,25.30
2023-07-03T02:51:05.185Z,29.02
2023-07-03T02:53:34.368Z,29.50
2023-07-03T02:56:08.616Z,25.08
2023-07-03T02:58:38.104Z,30.58
2023-07-03T03:01:05.883Z,29.40
2023-07-03T03:03:57.212Z,28.23
2023-07-03T03:07:40.828Z,36.60
2023-07-03T03:10:11.929Z,24.65
2023-07-03T03:12:39.034Z,25.38
2023-07-03T03:40:09.974Z,23.75
2023-07-03T03:42:05.551Z,20.30
2023-07-03T03:48:15.327Z,25.77
2023-07-03T03:50:47.485Z,22.17
2023-07-03T03:56:35.674Z,19.58
2023-07-03T03:59:03.482Z,25.05
2023-07-03T04:01:31.133Z,21.92
2023-07-03T04:03:58.376Z,21.40
2023-07-03T04:06:28.574Z,20.70
2023-07-03T04:08:59.784Z,26.83
2023-07-03T04:11:29.366Z,23.65
2023-07-03T04:14:11.313Z,23.05
2023-07-03T04:17:26.696Z,24.27
2023-07-03T04:20:17.847Z,25.63
2023-07-03T04:22:57.164Z,27.05
2023-07-03T04:25:33.294Z,28.75
2023-07-03T04:28:00.573Z,26.15
2023-07-03T04:30:27.887Z,23.83
2023-07-03T04:32:56.149Z,25.95
2023-07-03T04:38:07.364Z,22.42
2023-07-03T04:40:38.850Z,24.98
2023-07-03T04:43:09.228Z,28.80
2023-07-03T04:45:45.423Z,25.50
2023-07-03T04:48:13.464Z,26.80
2023-07-03T04:50:40.919Z,26.38
2023-07-03T04:53:08.138Z,29.38
2023-07-03T04:55:36.571Z,23.33
2023-07-03T04:58:08.250Z,28.05
2023-07-03T05:00:35.631Z,21.50
2023-07-03T05:03:05.114Z,27.13
2023-07-03T05:05:32.897Z,24.27
2023-07-03T05:08:00.058Z,32.67
2023-07-03T05:10:27.397Z,28.08
2023-07-03T05:12:54.551Z,26.75
2023-07-03T05:15:25.362Z,29.02
2023-07-03T05:17:56.404Z,26.55
2023-07-03T05:20:24.215Z,22.33
2023-07-03T05:22:51.573Z,24.85
2023-07-03T05:25:19.779Z,27.50
2023-07-03T05:27:48.002Z,24.92
2023-07-03T05:30:16.021Z,26.63
2023-07-03T05:32:43.301Z,27.38
2023-07-03T05:35:11.707Z,25.90
2023-07-03T05:37:39.102Z,21.30
2023-07-03T05:40:08.576Z,24.80
2023-07-03T05:42:37.736Z,27.10
2023-07-03T05:45:06.551Z,24.23
2023-07-03T05:47:36.515Z,24.25
2023-07-03T05:50:29.127Z,28.75
2023-07-03T05:53:14.505Z,26.27
2023-07-03T05:55:42.434Z,27.08
2023-07-03T05:58:57.806Z,26.33
2023-07-03T06:01:25.414Z,25.85
2023-07-03T06:04:43.905Z,29.60
2023-07-03T06:07:11.813Z,23.70
2023-07-03T06:09:52.824Z,30.13
2023-07-03T06:15:36.068Z,31.63
2023-07-03T06:18:05.417Z,26.70
2023-07-03T06:21:23.318Z,23.48
2023-07-03T06:24:31.567Z,25.85
2023-07-03T06:27:28.770Z,28.55
2023-07-03T06:30:11.687Z,26.00
2023-07-03T06:33:17.966Z,25.13
2023-07-03T06:36:11.531Z,22.48
2023-07-03T06:39:15.389Z,26.92
2023-07-03T06:41:55.026Z,25.83
2023-07-03T06:44:22.719Z,25.92
2023-07-03T06:47:40.827Z,24.90
2023-07-03T06:50:44.109Z,31.63
2023-07-03T06:56:39.572Z,25.90
2023-07-03T07:00:13.903Z,18.63
2023-07-03T07:09:24.873Z,21.80
2023-07-03T07:12:21.463Z,23.42
2023-07-03T07:17:52.027Z,17.15
2023-07-03T07:20:30.483Z,20.70
2023-07-03T07:23:11.815Z,25.17
2023-07-03T07:28:39.217Z,25.58
2023-07-03T07:31:42.134Z,17.15
2023-07-03T07:34:41.544Z,23.63
2023-07-03T07:37:59.851Z,14.52
2023-07-03T07:43:49.804Z,17.27
2023-07-03T07:46:47.392Z,21.27
2023-07-03T07:49:14.952Z,18.70
2023-07-03T07:53:01.083Z,20.85
2023-07-03T07:56:03.815Z,18.42
2023-07-03T08:01:47.687Z,21.73
2023-07-03T08:04:15.228Z,19.98
2023-07-03T08:07:33.741Z,27.30
2023-07-03T08:10:01.088Z,17.42
2023-07-03T08:13:15.050Z,16.10
2023-07-03T08:15:58.923Z,20.55
2023-07-03T08:19:03.054Z,21.95
2023-07-03T08:25:56.763Z,18.60
2023-07-03T08:29:36.030Z,18.20
2023-07-03T08:38:53.081Z,21.08
2023-07-03T08:41:21.565Z,19.08
2023-07-03T08:44:19.309Z,15.18
2023-07-03T08:54:09.628Z,21.40
2023-07-03T08:57:54.693Z,20.83
2023-07-03T09:04:20.733Z,16.63
2023-07-03T09:12:11.664Z,19.30
2023-07-03T09:27:25.891Z,25.73
2023-07-03T09:30:24.845Z,24.55
2023-07-03T09:33:12.481Z,16.17
2023-07-03T09:36:33.197Z,14.68
2023-07-03T09:39:20.563Z,18.00
2023-07-03T09:42:18.296Z,21.90
2023-07-03T09:53:22.901Z,18.15
2023-07-03T09:56:34.902Z,17.08
2023-07-03T09:59:49.285Z,18.55
2023-07-03T10:14:03.720Z,17.75
2023-07-03T10:27:35.339Z,16.38
2023-07-03T10:47:56.114Z,17.35
2023-07-03T10:55:31.082Z,26.52
2023-07-03T11:14:28.822Z,20.20
2023-07-03T11:29:17.467Z,17.27
2023-07-03T11:32:17.097Z,20.63
2023-07-03T11:49:33.276Z,18.58
2023-07-03T11:52:42.491Z,13.55
2023-07-03T11:55:54.716Z,14.68
2023-07-03T12:02:18.991Z,19.05
2023-07-03T12:14:05.283Z,19.08
2023-07-03T12:17:26.464Z,17.17
2023-07-03T12:20:23.389Z,16.05
2023-07-03T12:29:23.791Z,19.42
2023-07-03T12:32:39.914Z,17.27
2023-07-03T12:36:13.563Z,16.27
2023-07-03T12:39:55.886Z,14.57
2023-07-03T12:42:38.623Z,14.13
2023-07-03T12:46:02.815Z,16.45
2023-07-03T12:48:48.433Z,18.17
2023-07-03T12:57:58.235Z,17.00
2023-07-03T13:01:59.953Z,22.00
2023-07-03T13:05:45.095Z,12.93
2023-07-03T13:12:19.766Z,19.60
2023-07-03T13:15:44.956Z,16.35
2023-07-03T13:19:04.839Z,15.48
2023-07-03T13:22:04.664Z,17.90
2023-07-03T13:24:32.782Z,15.95
2023-07-03T13:27:28.183Z,16.05
2023-07-03T13:40:43.506Z,14.00
2023-07-03T13:43:43.785Z,14.70
2023-07-03T13:46:11.057Z,13.30
2023-07-03T13:49:30.139Z,16.48
2023-07-03T13:52:12.701Z,13.68
2023-07-03T13:57:53.872Z,14.13
2023-07-03T14:00:57.811Z,19.05
2023-07-03T14:03:25.235Z,10.43
2023-07-03T14:13:59.821Z,14.80
2023-07-03T14:17:13.359Z,10.95
2023-07-03T14:19:40.827Z,10.32
2023-07-03T14:22:20.746Z,15.23
2023-07-03T14:24:48.059Z,15.27
2023-07-03T14:28:31.216Z,14.23
2023-07-03T14:30:58.689Z,13.65
2023-07-03T14:33:55.492Z,14.32
2023-07-03T14:36:23.870Z,16.92
2023-07-03T14:43:28.566Z,10.73
2023-07-03T14:46:48.916Z,11.63
2023-07-03T15:01:08.078Z,12.77
2023-07-03T15:03:47.292Z,12.95
2023-07-03T15:06:48.955Z,11.82
2023-07-03T15:13:38.999Z,11.85
2023-07-03T15:16:08.012Z,9.48
2023-07-03T15:18:50.821Z,9.82
2023-07-03T15:25:29.821Z,12.10
2023-07-03T15:28:14.572Z,11.15
2023-07-03T15:34:17.736Z,9.20
2023-07-03T15:36:59.393Z,10.93
2023-07-03T15:39:26.878Z,9.35
2023-07-03T15:42:19.390Z,11.43
2023-07-03T15:45:16.069Z,11.40
2023-07-03T15:48:12.932Z,7.28
2023-07-03T15:51:41.924Z,8.95
2023-07-03T15:54:09.877Z,14.57
2023-07-03T15:57:15.105Z,12.80
2023-07-03T16:00:14.703Z,10.80
2023-07-03T16:02:42.261Z,11.77
2023-07-03T16:06:45.728Z,10.75
2023-07-03T16:09:26.141Z,11.38
2023-07-03T16:12:07.547Z,12.02
2023-07-03T16:17:57.805Z,8.38
2023-07-03T16:21:15.670Z,8.95
2023-07-03T16:23:47.456Z,14.20
2023-07-03T16:27:06.101Z,9.13
2023-07-03T16:29:48.972Z,12.00
2023-07-03T16:32:30.262Z,7.55
2023-07-03T16:36:14.486Z,9.18
2023-07-03T16:47:07.950Z,10.35
2023-07-03T16:56:37.233Z,11.45
2023-07-03T16:59:20.237Z,7.72
2023-07-03T17:03:20.038Z,9.82
2023-07-03T17:14:41.390Z,10.40
2023-07-03T17:17:26.509Z,10.18
2023-07-03T17:20:26.477Z,9.43
2023-07-03T17:27:50.816Z,11.93
2023-07-03T17:30:46.410Z,8.68
2023-07-03T17:34:57.198Z,13.82
2023-07-03T17:44:09.282Z,10.23
2023-07-03T17:51:12.807Z,9.20
2023-07-03T17:53:54.508Z,10.65
2023-07-03T17:56:54.286Z,10.40
2023-07-03T18:00:33.863Z,11.20
2023-07-03T18:03:14.444Z,9.88
2023-07-03T18:05:42.088Z,14.45
2023-07-03T18:14:11.511Z,10.98
2023-07-03T18:17:14.984Z,12.35
2023-07-03T18:19:51.679Z,12.52
2023-07-03T18:22:52.966Z,12.60
2023-07-03T18:26:17.310Z,9.23
2023-07-03T18:28:56.279Z,8.10
2023-07-03T18:34:11.961Z,11.63
2023-07-03T18:36:50.361Z,8.57
2023-07-03T18:39:31.810Z,11.80
2023-07-03T18:42:25.676Z,12.93
2023-07-03T18:45:20.877Z,11.57
2023-07-03T18:48:10.485Z,9.82
2023-07-03T18:50:50.754Z,12.73
2023-07-03T18:53:35.362Z,11.02
2023-07-03T18:56:21.735Z,15.05
2023-07-03T18:59:48.228Z,13.35
2023-07-03T19:02:27.093Z,12.23
2023-07-03T19:05:27.864Z,15.40
2023-07-03T19:07:55.606Z,11.02
2023-07-03T19:10:34.028Z,15.20
2023-07-03T19:13:20.555Z,13.52
2023-07-03T19:16:41.771Z,14.93
2023-07-03T19:19:23.137Z,10.43
2023-07-03T19:22:05.219Z,15.95
2023-07-03T19:25:03.812Z,14.45
2023-07-03T19:27:31.319Z,11.70
2023-07-03T19:30:30.605Z,13.65
2023-07-03T19:41:57.490Z,16.77
2023-07-03T19:45:45.623Z,13.63
2023-07-03T19:56:50.634Z,10.25
2023-07-03T20:00:15.796Z,16.05
2023-07-03T20:03:21.520Z,14.27
2023-07-03T20:06:22.779Z,14.60
2023-07-03T20:09:29.786Z,12.15
2023-07-03T20:12:08.285Z,10.80
2023-07-03T20:14:49.323Z,11.93
2023-07-03T20:17:16.988Z,8.07
2023-07-03T20:19:55.800Z,10.73
2023-07-03T20:22:58.235Z,13.98
2023-07-03T20:26:39.688Z,16.30
2023-07-03T20:29:22.639Z,13.05
2023-07-03T20:33:00.941Z,12.63
2023-07-03T20:36:45.195Z,13.18
2023-07-03T20:39:48.345Z,16.38
2023-07-03T20:43:43.572Z,10.35
2023-07-03T20:46:32.634Z,20.23
2023-07-03T20:50:02.311Z,12.95
2023-07-03T20:56:30.920Z,9.13
2023-07-03T21:00:30.700Z,14.63
2023-07-03T21:03:11.176Z,17.30
2023-07-03T21:06:15.525Z,19.60
2023-07-03T21:13:08.561Z,11.50
2023-07-03T21:15:54.487Z,11.55
2023-07-03T21:19:05.304Z,13.00
2023-07-03T21:25:49.878Z,14.32
2023-07-03T21:36:33.946Z,10.93
2023-07-03T21:45:16.777Z,13.35
2023-07-03T21:48:35.651Z,12.18
2023-07-03T21:51:17.658Z,10.70
2023-07-03T21:54:37.558Z,10.43
2023-07-03T21:57:44.682Z,10.27
2023-07-03T22:00:51.152Z,12.07
2023-07-03T22:07:18.302Z,8.95
2023-07-03T22:13:21.354Z,13.50
2023-07-03T22:16:25.992Z,10.95
2023-07-03T22:18:56.128Z,14.30
2023-07-03T22:21:24.765Z,13.38
2023-07-03T22:23:57.162Z,12.18
2023-07-03T22:26:34.599Z,10.98
2023-07-03T22:29:02.022Z,9.73
2023-07-03T22:31:41.056Z,15.05
2023-07-03T22:34:09.202Z,14.07
2023-07-03T22:36:38.895Z,13.38
2023-07-03T22:39:06.303Z,11.65
2023-07-03T22:41:33.944Z,12.48
2023-07-03T22:44:07.236Z,9.40
2023-07-03T22:46:55.894Z,11.63
2023-07-03T22:49:36.534Z,11.10
2023-07-03T22:52:09.031Z,9.93
2023-07-03T22:54:43.929Z,9.07
2023-07-03T22:57:17.737Z,9.02
2023-07-03T23:00:05.753Z,9.60
2023-07-03T23:03:15.570Z,11.40
2023-07-03T23:06:17.458Z,10.23
2023-07-03T23:08:59.481Z,9.20
2023-07-03T23:11:30.328Z,8.38
2023-07-03T23:14:09.153Z,10.30
2023-07-03T23:17:01.417Z,10.98
2023-07-03T23:19:46.390Z,11.30
2023-07-03T23:22:34.294Z,12.43
2023-07-03T23:25:14.918Z,9.10
2023-07-03T23:28:04.233Z,8.05
2023-07-03T23:30:49.321Z,11.43
2023-07-03T23:33:31.918Z,10.85
2023-07-03T23:36:14.248Z,10.63
2023-07-03T23:39:02.571Z,7.97
2023-07-03T23:41:39.785Z,9.90
2023-07-03T23:44:14.889Z,7.47
2023-07-03T23:46:51.562Z,13.68
2023-07-03T23:49:27.202Z,13.57
2023-07-03T23:52:10.080Z,9.90
2023-07-03T23:54:47.068Z,8.30
2023-07-03T23:57:28.986Z,9.73
